createdAt,value
2018-03-27T00:01:01.961Z,38.00
2018-03-27T00:02:03.491Z,35.87
2018-03-27T00:03:05.009Z,33.10
2018-03-27T00:04:06.541Z,30.93
2018-03-27T00:05:15.398Z,34.90
2018-03-27T00:06:17.001Z,38.97
2018-03-27T00:07:18.477Z,38.67
2018-03-27T00:08:20.714Z,36.27
2018-03-27T00:09:22.500Z,39.77
2018-03-27T00:10:24.739Z,37.50
2018-03-27T00:11:26.251Z,38.60
2018-03-27T00:12:27.735Z,37.87
2018-03-27T00:13:29.231Z,33.33
2018-03-27T00:14:30.729Z,40.27
2018-03-27T00:15:32.216Z,31.57
2018-03-27T00:16:34.437Z,37.17
2018-03-27T00:17:35.917Z,39.57
2018-03-27T00:18:37.441Z,36.13
2018-03-27T00:19:40.061Z,39.70
2018-03-27T00:20:41.545Z,40.23
2018-03-27T00:21:43.041Z,42.03
2018-03-27T00:22:45.293Z,37.97
2018-03-27T00:23:46.799Z,40.50
2018-03-27T00:24:49.374Z,44.80
2018-03-27T00:25:50.859Z,38.87
2018-03-27T00:27:00.133Z,40.97
2018-03-27T00:28:15.572Z,42.07
2018-03-27T00:29:35.560Z,40.80
2018-03-27T00:30:55.717Z,39.60
2018-03-27T00:32:15.449Z,39.67
2018-03-27T00:33:35.353Z,37.50
2018-03-27T00:34:55.296Z,39.70
2018-03-27T00:36:16.237Z,36.30
2018-03-27T00:38:03.457Z,34.47
2018-03-27T00:39:23.999Z,39.90
2018-03-27T00:40:41.735Z,40.27
2018-03-27T00:44:00.465Z,36.53
2018-03-27T00:45:03.087Z,39.77
2018-03-27T00:46:04.564Z,38.80
2018-03-27T00:47:07.851Z,39.63
2018-03-27T00:48:09.359Z,40.93
2018-03-27T00:49:10.843Z,39.07
2018-03-27T00:50:12.329Z,41.07
2018-03-27T00:51:13.820Z,39.27
2018-03-27T00:52:15.297Z,44.93
2018-03-27T00:53:16.793Z,44.80
2018-03-27T00:57:13.566Z,46.10
2018-03-27T00:58:15.071Z,42.67
2018-03-27T00:59:16.902Z,42.00
2018-03-27T01:00:19.195Z,41.63
2018-03-27T01:01:20.662Z,44.53
2018-03-27T01:02:22.141Z,47.77
2018-03-27T01:03:23.624Z,49.13
2018-03-27T01:04:25.111Z,49.13
2018-03-27T01:05:26.576Z,48.70
2018-03-27T01:06:28.080Z,43.27
2018-03-27T01:08:34.071Z,47.37
2018-03-27T01:09:37.049Z,48.17
2018-03-27T01:10:39.622Z,46.97
2018-03-27T01:11:42.785Z,45.97
2018-03-27T01:12:44.241Z,48.83
2018-03-27T01:13:45.697Z,40.83
2018-03-27T01:14:47.961Z,47.87
2018-03-27T01:17:07.108Z,47.13
2018-03-27T01:18:08.605Z,42.27
2018-03-27T01:19:10.093Z,48.17
2018-03-27T01:20:12.682Z,46.83
2018-03-27T01:21:14.177Z,41.70
2018-03-27T01:22:15.676Z,43.23
2018-03-27T01:23:17.882Z,42.93
2018-03-27T01:24:19.355Z,44.57
2018-03-27T01:25:20.937Z,42.07
2018-03-27T01:26:23.533Z,43.50
2018-03-27T01:27:25.768Z,46.60
2018-03-27T01:28:27.247Z,44.93
2018-03-27T01:29:29.607Z,42.13
2018-03-27T01:30:31.835Z,46.03
2018-03-27T01:31:33.320Z,44.00
2018-03-27T01:32:34.805Z,44.07
2018-03-27T01:33:36.282Z,46.77
2018-03-27T01:34:37.801Z,42.10
2018-03-27T01:35:40.035Z,45.73
2018-03-27T01:38:12.249Z,44.57
2018-03-27T01:39:13.710Z,43.00
2018-03-27T01:40:16.858Z,44.67
2018-03-27T01:41:18.626Z,43.33
2018-03-27T01:42:20.086Z,43.10
2018-03-27T01:43:21.561Z,42.40
2018-03-27T01:44:23.789Z,42.40
2018-03-27T01:45:25.261Z,48.23
2018-03-27T01:46:26.909Z,45.90
2018-03-27T01:47:28.385Z,42.27
2018-03-27T01:48:30.615Z,49.87
2018-03-27T01:49:32.080Z,44.83
2018-03-27T01:50:33.550Z,46.10
2018-03-27T01:51:35.025Z,48.10
2018-03-27T01:52:37.247Z,41.73
2018-03-27T01:53:39.486Z,47.57
2018-03-27T01:55:30.145Z,45.30
2018-03-27T01:56:31.615Z,47.60
2018-03-27T01:57:33.853Z,49.50
2018-03-27T01:58:35.302Z,41.47
2018-03-27T01:59:37.549Z,46.07
2018-03-27T02:00:39.025Z,44.20
2018-03-27T02:02:22.125Z,42.47
2018-03-27T02:03:23.601Z,45.23
2018-03-27T02:04:45.175Z,47.20
2018-03-27T02:05:47.031Z,42.50
2018-03-27T02:06:48.517Z,47.43
2018-03-27T02:07:49.976Z,45.47
2018-03-27T02:08:51.793Z,45.73
2018-03-27T02:09:53.257Z,47.37
2018-03-27T02:11:01.630Z,43.50
2018-03-27T02:13:33.279Z,42.00
2018-03-27T02:14:40.837Z,50.23
2018-03-27T02:15:48.995Z,45.73
2018-03-27T02:16:56.601Z,46.57
2018-03-27T02:18:04.295Z,45.07
2018-03-27T02:19:11.664Z,44.17
2018-03-27T02:20:19.637Z,46.33
2018-03-27T02:21:24.541Z,48.90
2018-03-27T02:22:27.563Z,46.40
2018-03-27T02:23:34.689Z,45.23
2018-03-27T02:24:37.773Z,45.43
2018-03-27T02:26:48.068Z,47.63
2018-03-27T02:27:49.554Z,43.87
2018-03-27T02:28:52.520Z,45.33
2018-03-27T02:29:54.009Z,47.10
2018-03-27T02:30:56.978Z,43.03
2018-03-27T02:31:58.731Z,44.63
2018-03-27T02:33:00.217Z,46.73
2018-03-27T02:34:02.441Z,44.97
2018-03-27T02:35:03.938Z,42.47
2018-03-27T02:36:06.927Z,44.23
2018-03-27T02:37:08.456Z,39.33
2018-03-27T02:38:09.937Z,38.33
2018-03-27T02:39:11.402Z,41.63
2018-03-27T02:40:12.867Z,37.07
2018-03-27T02:41:14.325Z,38.97
2018-03-27T02:42:15.896Z,40.07
2018-03-27T02:43:19.108Z,40.60
2018-03-27T02:44:20.594Z,41.40
2018-03-27T02:45:22.066Z,45.23
2018-03-27T02:46:23.596Z,42.03
2018-03-27T02:47:25.345Z,44.50
2018-03-27T02:48:27.587Z,46.33
2018-03-27T02:49:29.062Z,45.87
2018-03-27T02:50:32.238Z,46.10
2018-03-27T02:51:34.516Z,47.43
2018-03-27T02:52:36.745Z,45.80
2018-03-27T02:53:38.251Z,45.37
2018-03-27T02:54:39.786Z,43.83
2018-03-27T02:55:41.241Z,43.37
2018-03-27T02:56:43.523Z,44.37
2018-03-27T02:57:46.059Z,38.90
2018-03-27T02:58:47.655Z,37.33
2018-03-27T02:59:49.862Z,36.63
2018-03-27T03:00:51.342Z,36.23
2018-03-27T03:01:52.860Z,39.40
2018-03-27T03:02:54.358Z,38.90
2018-03-27T03:03:56.990Z,36.57
2018-03-27T03:04:58.523Z,38.00
2018-03-27T03:06:00.034Z,35.27
2018-03-27T03:07:01.602Z,31.37
2018-03-27T03:08:04.840Z,33.90
2018-03-27T03:09:06.333Z,34.80
2018-03-27T03:10:07.851Z,35.87
2018-03-27T03:11:09.337Z,34.13
2018-03-27T03:12:11.916Z,35.67
2018-03-27T03:13:13.408Z,34.83
2018-03-27T03:14:14.938Z,36.03
2018-03-27T03:15:17.548Z,35.17
2018-03-27T03:16:19.045Z,32.35
2018-03-27T03:17:20.558Z,34.33
2018-03-27T03:18:22.075Z,32.27
2018-03-27T03:19:23.622Z,36.40
2018-03-27T03:20:25.090Z,35.60
2018-03-27T03:21:27.391Z,34.87
2018-03-27T03:22:28.896Z,37.73
2018-03-27T03:23:30.417Z,35.67
2018-03-27T03:24:31.935Z,40.00
2018-03-27T03:25:33.451Z,36.53
2018-03-27T03:26:34.966Z,36.93
2018-03-27T03:27:36.482Z,35.77
2018-03-27T03:28:39.041Z,34.13
2018-03-27T03:29:40.509Z,35.93
2018-03-27T03:30:42.783Z,31.13
2018-03-27T03:31:45.003Z,38.50
2018-03-27T03:32:46.506Z,33.83
2018-03-27T03:33:48.293Z,35.35
2018-03-27T03:34:49.802Z,39.27
2018-03-27T03:35:51.307Z,40.77
2018-03-27T03:36:52.873Z,36.63
2018-03-27T03:37:54.390Z,40.77
2018-03-27T03:38:57.262Z,42.73
2018-03-27T03:39:58.759Z,41.03
2018-03-27T03:41:00.245Z,42.17
2018-03-27T03:42:01.732Z,40.23
2018-03-27T03:43:03.224Z,40.33
2018-03-27T03:44:04.987Z,46.60
2018-03-27T03:45:06.513Z,45.20
2018-03-27T03:46:08.288Z,33.47
2018-03-27T03:47:09.859Z,42.97
2018-03-27T03:48:11.443Z,36.27
2018-03-27T03:49:13.326Z,39.13
2018-03-27T03:50:14.915Z,44.37
2018-03-27T03:51:16.478Z,40.47
2018-03-27T03:52:18.718Z,42.77
2018-03-27T03:53:20.213Z,42.43
2018-03-27T03:54:21.754Z,42.43
2018-03-27T03:55:23.243Z,35.20
2018-03-27T03:56:25.479Z,43.17
2018-03-27T03:57:26.969Z,40.27
2018-03-27T03:58:28.443Z,37.70
2018-03-27T03:59:29.953Z,35.17
2018-03-27T04:00:32.203Z,37.10
2018-03-27T04:01:33.673Z,35.60
2018-03-27T04:02:35.165Z,39.27
2018-03-27T04:03:36.691Z,44.33
2018-03-27T04:04:38.942Z,38.63
2018-03-27T04:05:40.417Z,39.30
2018-03-27T04:06:42.658Z,38.33
2018-03-27T04:07:44.205Z,36.87
2018-03-27T04:08:45.661Z,42.28
2018-03-27T04:09:47.181Z,42.87
2018-03-27T04:10:48.680Z,40.50
2018-03-27T04:11:50.176Z,39.37
2018-03-27T04:12:52.413Z,41.43
2018-03-27T04:13:53.899Z,39.80
2018-03-27T04:14:55.395Z,39.50
2018-03-27T04:15:56.892Z,39.63
2018-03-27T04:16:58.406Z,36.00
2018-03-27T04:18:00.665Z,37.20
2018-03-27T04:19:02.184Z,33.77
2018-03-27T04:20:03.773Z,36.40
2018-03-27T04:21:05.273Z,40.47
2018-03-27T04:22:06.765Z,38.58
2018-03-27T04:23:08.801Z,37.87
2018-03-27T04:24:10.315Z,38.60
2018-03-27T04:25:12.581Z,39.37
2018-03-27T04:26:14.074Z,38.20
2018-03-27T04:27:15.617Z,39.17
2018-03-27T04:28:17.103Z,38.77
2018-03-27T04:29:18.597Z,40.10
2018-03-27T04:30:21.633Z,38.23
2018-03-27T04:31:23.155Z,44.30
2018-03-27T04:32:24.739Z,41.37
2018-03-27T04:33:26.278Z,42.10
2018-03-27T04:34:27.813Z,42.03
2018-03-27T04:35:29.384Z,43.37
2018-03-27T04:36:31.672Z,46.10
2018-03-27T04:38:32.181Z,47.38
2018-03-27T04:39:34.524Z,44.47
2018-03-27T04:40:36.099Z,44.27
2018-03-27T04:41:38.475Z,47.07
2018-03-27T04:42:40.845Z,47.60
2018-03-27T04:43:43.630Z,50.73
2018-03-27T04:44:45.294Z,45.63
2018-03-27T04:45:47.715Z,49.87
2018-03-27T04:46:49.383Z,45.77
2018-03-27T04:47:51.869Z,50.27
2018-03-27T04:48:53.491Z,48.63
2018-03-27T04:49:55.158Z,55.90
2018-03-27T04:50:56.785Z,53.17
2018-03-27T04:51:58.466Z,51.20
2018-03-27T04:53:00.111Z,51.07
2018-03-27T04:54:01.702Z,51.47
2018-03-27T04:55:03.384Z,52.20
2018-03-27T04:56:06.689Z,52.23
2018-03-27T04:57:08.365Z,55.20
2018-03-27T04:58:10.736Z,50.73
2018-03-27T04:59:12.366Z,54.80
2018-03-27T05:00:13.992Z,55.73
2018-03-27T05:01:15.656Z,48.67
2018-03-27T05:02:17.466Z,53.53
2018-03-27T05:03:19.083Z,56.10
2018-03-27T05:04:22.478Z,54.27
2018-03-27T05:05:24.884Z,57.57
2018-03-27T05:06:26.922Z,56.27
2018-03-27T05:07:29.285Z,57.23
2018-03-27T05:08:31.761Z,54.07
2018-03-27T05:09:33.415Z,52.80
2018-03-27T05:10:35.067Z,53.63
2018-03-27T05:11:37.885Z,55.67
2018-03-27T05:12:39.557Z,56.07
2018-03-27T05:14:20.152Z,53.43
2018-03-27T05:15:23.483Z,55.57
2018-03-27T05:16:26.769Z,55.07
2018-03-27T05:19:39.641Z,57.63
2018-03-27T05:20:41.662Z,56.70
2018-03-27T05:21:43.320Z,57.43
2018-03-27T05:22:44.953Z,57.47
2018-03-27T05:23:47.353Z,53.37
2018-03-27T05:24:49.039Z,53.47
2018-03-27T05:25:50.691Z,55.20
2018-03-27T05:26:52.329Z,52.97
2018-03-27T05:27:53.995Z,57.07
2018-03-27T05:28:55.603Z,57.33
2018-03-27T05:29:57.213Z,55.37
2018-03-27T05:30:59.611Z,44.43
2018-03-27T05:32:01.241Z,56.67
2018-03-27T05:34:01.101Z,58.47
2018-03-27T05:35:02.785Z,57.90
2018-03-27T05:36:04.433Z,56.10
2018-03-27T05:37:06.792Z,52.90
2018-03-27T05:38:08.586Z,56.60
2018-03-27T05:41:12.221Z,54.50
2018-03-27T05:42:13.891Z,58.97
2018-03-27T05:43:15.563Z,55.90
2018-03-27T05:44:17.232Z,54.93
2018-03-27T05:45:20.512Z,55.93
2018-03-27T05:46:22.137Z,55.53
2018-03-27T05:47:23.775Z,50.60
2018-03-27T05:48:25.465Z,50.40
2018-03-27T05:49:27.145Z,58.27
2018-03-27T05:50:28.810Z,48.13
2018-03-27T05:51:31.931Z,45.67
2018-03-27T05:52:33.578Z,48.50
2018-03-27T05:53:35.253Z,55.23
2018-03-27T05:54:36.925Z,52.63
2018-03-27T05:56:11.455Z,55.37
2018-03-27T05:57:13.415Z,54.20
2018-03-27T05:58:15.083Z,53.17
2018-03-27T05:59:16.686Z,52.30
2018-03-27T06:00:56.931Z,53.87
2018-03-27T06:01:58.605Z,54.43
2018-03-27T06:03:01.975Z,49.00
2018-03-27T06:05:50.511Z,56.33
2018-03-27T06:06:53.242Z,50.23
2018-03-27T06:07:56.529Z,49.57
2018-03-27T06:08:58.281Z,53.10
2018-03-27T06:09:59.989Z,58.73
2018-03-27T06:11:01.976Z,45.47
2018-03-27T06:12:03.674Z,53.70
2018-03-27T06:13:06.780Z,53.00
2018-03-27T06:14:08.500Z,52.37
2018-03-27T06:15:10.165Z,55.40
2018-03-27T06:16:11.794Z,59.47
2018-03-27T06:17:13.504Z,53.53
2018-03-27T06:18:16.859Z,54.87
2018-03-27T06:19:18.552Z,56.20
2018-03-27T06:20:20.203Z,56.53
2018-03-27T06:21:21.826Z,58.90
2018-03-27T06:22:23.441Z,59.30
2018-03-27T06:23:25.105Z,56.17
2018-03-27T06:24:26.746Z,55.77
2018-03-27T06:25:28.537Z,55.37
2018-03-27T06:26:30.166Z,54.70
2018-03-27T06:27:31.814Z,50.67
2018-03-27T06:28:34.160Z,54.77
2018-03-27T06:29:35.874Z,49.60
2018-03-27T06:30:37.657Z,53.03
2018-03-27T06:31:39.331Z,52.70
2018-03-27T06:32:40.979Z,53.70
2018-03-27T06:33:42.651Z,56.70
2018-03-27T06:34:44.394Z,52.20
2018-03-27T06:35:46.834Z,54.50
2018-03-27T06:36:48.569Z,49.60
2018-03-27T06:37:51.699Z,45.03
2018-03-27T06:38:53.455Z,47.80
2018-03-27T06:39:55.219Z,47.40
2018-03-27T06:40:56.959Z,52.27
2018-03-27T06:43:22.593Z,52.17
2018-03-27T06:44:24.253Z,52.63
2018-03-27T06:45:26.729Z,54.43
2018-03-27T06:46:28.437Z,51.60
2018-03-27T06:47:30.125Z,52.00
2018-03-27T06:49:08.600Z,52.20
2018-03-27T06:50:10.297Z,46.47
2018-03-27T06:51:13.131Z,53.83
2018-03-27T06:52:14.804Z,51.97
2018-03-27T06:53:16.517Z,54.73
2018-03-27T06:54:18.216Z,56.27
2018-03-27T06:55:19.905Z,51.30
2018-03-27T06:56:22.392Z,53.03
2018-03-27T06:57:24.848Z,52.97
2018-03-27T06:58:26.507Z,50.40
2018-03-27T06:59:28.240Z,52.77
2018-03-27T07:00:29.998Z,56.60
2018-03-27T07:01:31.735Z,50.87
2018-03-27T07:02:33.440Z,52.63
2018-03-27T07:03:36.793Z,53.70
2018-03-27T07:04:38.506Z,52.63
2018-03-27T07:05:40.320Z,56.13
2018-03-27T07:06:41.946Z,52.87
2018-03-27T07:07:45.310Z,53.63
2018-03-27T07:11:18.904Z,49.45
2018-03-27T07:13:41.872Z,53.30
2018-03-27T07:16:59.439Z,55.17
2018-03-27T07:18:45.157Z,52.50
2018-03-27T07:23:16.370Z,56.73
2018-03-27T07:24:19.736Z,53.90
2018-03-27T07:25:21.526Z,56.17
2018-03-27T07:26:23.938Z,49.83
2018-03-27T07:27:26.698Z,49.10
2018-03-27T07:28:28.397Z,50.70
2018-03-27T07:29:30.119Z,52.97
2018-03-27T07:30:31.909Z,51.67
2018-03-27T07:31:33.603Z,53.13
2018-03-27T07:32:35.304Z,57.33
2018-03-27T07:33:37.802Z,66.47
2018-03-27T07:34:41.170Z,61.57
2018-03-27T07:35:42.960Z,54.90
2018-03-27T07:36:44.720Z,57.07
2018-03-27T07:37:47.132Z,54.73
2018-03-27T07:38:48.855Z,52.67
2018-03-27T07:39:50.657Z,52.37
2018-03-27T07:40:52.330Z,53.63
2018-03-27T07:41:54.010Z,48.57
2018-03-27T07:42:57.195Z,47.80
2018-03-27T07:45:16.868Z,50.53
2018-03-27T07:46:18.638Z,49.27
2018-03-27T07:47:20.409Z,45.37
2018-03-27T07:48:23.667Z,48.13
2018-03-27T07:49:25.494Z,51.23
2018-03-27T07:50:27.270Z,49.97
2018-03-27T07:51:29.708Z,50.20
2018-03-27T07:52:31.876Z,42.00
2018-03-27T07:53:33.595Z,50.73
2018-03-27T07:55:57.556Z,47.67
2018-03-27T07:59:05.677Z,45.17
2018-03-27T08:00:09.106Z,48.43
2018-03-27T08:01:11.953Z,46.47
2018-03-27T08:02:15.162Z,43.57
2018-03-27T08:03:16.908Z,47.97
2018-03-27T08:04:20.279Z,51.23
2018-03-27T08:05:22.088Z,48.27
2018-03-27T08:06:23.814Z,49.63
2018-03-27T08:08:43.810Z,47.87
2018-03-27T08:09:46.794Z,46.77
2018-03-27T08:11:10.168Z,46.77
2018-03-27T08:12:12.630Z,45.13
2018-03-27T08:19:04.533Z,45.13
2018-03-27T08:21:42.149Z,40.87
2018-03-27T08:22:43.836Z,40.10
2018-03-27T08:23:45.540Z,44.00
2018-03-27T08:24:47.232Z,39.03
2018-03-27T08:25:48.934Z,43.53
2018-03-27T08:26:50.640Z,44.87
2018-03-27T08:27:52.421Z,45.43
2018-03-27T08:29:28.408Z,38.27
2018-03-27T08:32:52.953Z,40.47
2018-03-27T08:33:55.424Z,40.43
2018-03-27T08:39:58.350Z,37.47
2018-03-27T08:41:01.756Z,40.03
2018-03-27T08:42:03.482Z,40.13
2018-03-27T08:43:05.169Z,39.43
2018-03-27T08:44:07.339Z,44.87
2018-03-27T08:45:34.775Z,36.70
2018-03-27T08:46:37.510Z,30.60
2018-03-27T08:47:39.040Z,43.90
2018-03-27T08:51:39.126Z,45.90
2018-03-27T08:52:41.950Z,49.73
2018-03-27T08:56:27.770Z,46.53
2018-03-27T08:57:31.139Z,41.17
2018-03-27T09:00:27.780Z,44.93
2018-03-27T09:10:05.442Z,43.00
2018-03-27T09:11:07.148Z,39.87
2018-03-27T09:12:08.884Z,42.57
2018-03-27T09:13:11.666Z,40.10
2018-03-27T09:14:14.130Z,45.03
2018-03-27T09:15:16.588Z,43.70
2018-03-27T09:16:19.048Z,42.50
2018-03-27T09:25:18.214Z,43.47
2018-03-27T09:26:20.794Z,38.53
2018-03-27T09:27:23.996Z,39.90
2018-03-27T09:28:25.873Z,45.33
2018-03-27T09:29:27.585Z,41.20
2018-03-27T09:30:29.302Z,41.93
2018-03-27T09:32:54.674Z,36.30
2018-03-27T09:33:57.476Z,37.93
2018-03-27T09:34:59.217Z,35.87
2018-03-27T09:41:19.186Z,33.67
2018-03-27T09:42:20.885Z,35.50
2018-03-27T09:43:22.651Z,32.97
2018-03-27T09:44:26.030Z,34.73
2018-03-27T09:47:07.226Z,34.70
2018-03-27T09:48:08.950Z,38.17
2018-03-27T09:49:10.660Z,37.67
2018-03-27T09:50:12.305Z,35.20
2018-03-27T09:51:13.984Z,36.33
2018-03-27T09:52:16.801Z,39.10
2018-03-27T09:53:19.647Z,40.10
2018-03-27T09:54:21.329Z,40.77
2018-03-27T09:57:09.711Z,44.27
2018-03-27T09:58:11.601Z,39.87
2018-03-27T10:00:40.172Z,37.77
2018-03-27T10:01:42.172Z,39.63
2018-03-27T10:02:44.692Z,42.47
2018-03-27T10:03:47.270Z,42.67
2018-03-27T10:04:50.568Z,40.40
2018-03-27T10:05:52.604Z,43.07
2018-03-27T10:17:36.930Z,38.00
2018-03-27T10:21:06.793Z,34.57
2018-03-27T10:22:54.325Z,35.10
2018-03-27T10:23:56.034Z,34.43
2018-03-27T10:25:16.680Z,34.30
2018-03-27T10:26:18.440Z,37.17
2018-03-27T10:27:21.855Z,33.17
2018-03-27T10:28:23.557Z,39.40
2018-03-27T10:29:25.624Z,37.50
2018-03-27T10:30:27.344Z,35.50
2018-03-27T10:31:29.093Z,34.47
2018-03-27T10:32:31.871Z,33.00
2018-03-27T10:33:35.250Z,31.47
2018-03-27T10:34:37.049Z,32.10
2018-03-27T10:35:38.762Z,29.00
2018-03-27T10:39:27.363Z,30.90
2018-03-27T10:40:29.055Z,29.47
2018-03-27T10:42:37.584Z,30.45
2018-03-27T10:43:41.325Z,28.67
2018-03-27T10:44:43.079Z,26.97
2018-03-27T10:46:18.116Z,24.13
2018-03-27T10:47:19.938Z,23.93
2018-03-27T10:48:21.706Z,25.10
2018-03-27T10:50:22.414Z,24.13
2018-03-27T10:51:48.424Z,25.27
2018-03-27T10:52:51.786Z,24.73
2018-03-27T10:56:12.087Z,21.27
2018-03-27T10:58:43.703Z,26.13
2018-03-27T10:59:45.423Z,22.40
2018-03-27T11:00:47.148Z,23.03
2018-03-27T11:01:48.952Z,22.40
2018-03-27T11:02:50.626Z,25.60
2018-03-27T11:06:28.750Z,24.77
2018-03-27T11:14:41.305Z,27.93
2018-03-27T11:15:44.416Z,28.50
2018-03-27T11:18:03.295Z,28.30
2018-03-27T11:20:52.330Z,41.07
2018-03-27T11:27:00.312Z,44.77
2018-03-27T11:28:02.087Z,50.40
2018-03-27T11:35:12.559Z,52.50
2018-03-27T11:36:14.116Z,63.70
2018-03-27T11:37:17.199Z,61.03
2018-03-27T11:38:20.435Z,61.93
2018-03-27T11:41:31.738Z,61.40
2018-03-27T11:42:35.217Z,52.97
2018-03-27T11:43:37.257Z,54.67
2018-03-27T11:45:59.031Z,56.47
2018-03-27T11:47:01.516Z,61.77
2018-03-27T11:48:04.722Z,46.47
2018-03-27T11:49:07.810Z,66.33
2018-03-27T11:50:10.293Z,56.67
2018-03-27T11:51:12.764Z,57.38
2018-03-27T11:52:15.261Z,56.53
2018-03-27T11:53:17.741Z,63.37
2018-03-27T11:54:19.513Z,47.53
2018-03-27T11:58:13.560Z,63.17
2018-03-27T12:01:55.264Z,57.40
2018-03-27T12:05:59.591Z,60.67
2018-03-27T12:07:01.327Z,54.80
2018-03-27T12:08:03.106Z,49.50
2018-03-27T12:13:28.753Z,53.17
2018-03-27T12:15:16.910Z,60.03
2018-03-27T12:16:18.649Z,60.83
2018-03-27T12:17:21.472Z,50.90
2018-03-27T12:21:23.746Z,49.87
2018-03-27T12:22:27.115Z,50.43
2018-03-27T12:23:29.913Z,57.00
2018-03-27T12:28:24.930Z,46.37
2018-03-27T12:30:47.021Z,50.70
2018-03-27T12:31:49.860Z,52.27
2018-03-27T12:32:51.578Z,45.90
2018-03-27T12:33:53.302Z,44.90
2018-03-27T12:34:55.054Z,37.73
2018-03-27T12:35:56.683Z,43.63
2018-03-27T12:38:42.618Z,44.37
2018-03-27T12:39:44.287Z,44.70
2018-03-27T12:40:45.890Z,37.87
2018-03-27T12:42:42.730Z,43.60
2018-03-27T12:43:44.386Z,37.37
2018-03-27T12:44:46.052Z,40.60
2018-03-27T12:45:47.692Z,40.63
2018-03-27T12:46:49.380Z,38.63
2018-03-27T12:47:51.092Z,41.60
2018-03-27T12:48:52.933Z,37.37
2018-03-27T12:50:40.432Z,40.13
2018-03-27T12:53:55.996Z,34.47
2018-03-27T12:54:57.694Z,36.00
2018-03-27T12:55:59.410Z,39.77
2018-03-27T12:57:01.121Z,38.63
2018-03-27T12:58:02.812Z,37.17
2018-03-27T12:59:04.600Z,35.33
2018-03-27T13:00:06.275Z,33.10
2018-03-27T13:03:14.847Z,32.30
2018-03-27T13:04:17.227Z,29.30
2018-03-27T13:06:36.584Z,26.90
2018-03-27T13:07:38.352Z,28.50
2018-03-27T13:08:41.710Z,28.53
2018-03-27T13:12:33.916Z,28.53
2018-03-27T13:13:36.748Z,25.50
2018-03-27T13:14:38.473Z,28.23
2018-03-27T13:15:41.782Z,33.93
2018-03-27T13:16:44.929Z,36.03
2018-03-27T13:17:46.617Z,39.83
2018-03-27T13:18:49.787Z,33.60
2018-03-27T13:19:51.777Z,29.50
2018-03-27T13:20:54.209Z,31.53
2018-03-27T13:21:56.576Z,31.87
2018-03-27T13:22:58.235Z,29.40
2018-03-27T13:28:01.679Z,23.70
2018-03-27T13:30:26.427Z,24.83
2018-03-27T13:32:00.737Z,24.27
2018-03-27T13:33:02.419Z,22.97
2018-03-27T13:36:15.888Z,22.27
2018-03-27T13:37:18.256Z,24.20
2018-03-27T13:39:42.495Z,21.90
2018-03-27T13:40:44.251Z,23.50
2018-03-27T13:42:31.634Z,23.10
2018-03-27T13:43:34.761Z,20.77
2018-03-27T13:45:14.212Z,22.60
2018-03-27T13:46:15.864Z,20.83
2018-03-27T13:47:17.574Z,21.53
2018-03-27T13:49:13.601Z,21.50
2018-03-27T13:52:07.793Z,21.90
2018-03-27T13:53:09.559Z,21.20
2018-03-27T13:55:09.449Z,24.47
2018-03-27T13:57:30.936Z,22.10
2018-03-27T14:02:12.569Z,19.93
2018-03-27T14:06:53.377Z,25.40
2018-03-27T14:07:56.566Z,27.73
2018-03-27T14:08:58.234Z,25.47
2018-03-27T14:11:21.444Z,27.40
2018-03-27T14:15:25.027Z,24.83
2018-03-27T14:17:45.628Z,26.60
2018-03-27T14:18:48.100Z,25.40
2018-03-27T14:19:51.450Z,24.40
2018-03-27T14:22:28.809Z,25.73
2018-03-27T14:23:31.618Z,24.60
2018-03-27T14:24:33.292Z,26.23
2018-03-27T14:25:34.945Z,24.00
2018-03-27T14:26:36.706Z,27.73
2018-03-27T14:32:26.465Z,27.17
2018-03-27T14:34:16.719Z,22.87
2018-03-27T14:36:36.598Z,25.53
2018-03-27T14:37:39.236Z,27.37
2018-03-27T14:38:40.905Z,27.40
2018-03-27T14:39:43.712Z,27.03
2018-03-27T14:40:45.491Z,27.13
2018-03-27T14:41:47.242Z,25.23
2018-03-27T14:43:35.042Z,27.23
2018-03-27T14:45:11.857Z,26.23
2018-03-27T14:50:54.606Z,21.97
2018-03-27T14:51:56.302Z,27.00
2018-03-27T14:56:49.306Z,24.83
2018-03-27T14:58:58.668Z,29.67
2018-03-27T15:00:00.337Z,31.73
2018-03-27T15:01:01.977Z,22.03
2018-03-27T15:02:03.683Z,29.83
2018-03-27T15:03:06.486Z,28.60
2018-03-27T15:04:08.896Z,28.37
2018-03-27T15:05:12.220Z,26.23
2018-03-27T15:06:14.303Z,28.40
2018-03-27T15:07:16.741Z,34.67
2018-03-27T15:08:18.368Z,31.40
2018-03-27T15:10:33.952Z,23.27
2018-03-27T15:15:15.282Z,25.57
2018-03-27T15:20:42.388Z,27.07
2018-03-27T15:21:44.793Z,24.97
2018-03-27T15:22:47.257Z,25.07
2018-03-27T15:23:48.911Z,25.20
2018-03-27T15:24:52.252Z,23.90
2018-03-27T16:01:50.897Z,23.00
2018-03-27T16:02:53.998Z,26.07
2018-03-27T16:03:57.194Z,25.40
2018-03-27T16:04:58.930Z,25.87
2018-03-27T16:06:00.588Z,21.73
2018-03-27T16:07:02.273Z,24.27
2018-03-27T16:08:04.006Z,26.73
2018-03-27T16:09:07.732Z,25.37
2018-03-27T16:10:11.114Z,26.97
2018-03-27T16:11:14.452Z,25.30
2018-03-27T16:12:16.152Z,26.03
2018-03-27T16:13:17.841Z,23.53
2018-03-27T16:14:19.468Z,26.80
2018-03-27T16:15:21.154Z,26.00
2018-03-27T16:16:24.528Z,24.77
2018-03-27T16:17:26.946Z,23.57
2018-03-27T16:18:29.436Z,23.77
2018-03-27T16:19:31.128Z,25.80
2018-03-27T16:20:34.486Z,24.30
2018-03-27T16:21:36.142Z,26.37
2018-03-27T16:22:38.676Z,25.67
2018-03-27T16:23:40.436Z,25.90
2018-03-27T16:26:00.748Z,28.07
2018-03-27T16:29:34.523Z,26.43
2018-03-27T16:30:36.162Z,27.17
2018-03-27T16:32:01.556Z,25.73
2018-03-27T16:33:03.135Z,28.40
2018-03-27T16:34:06.410Z,28.80
2018-03-27T16:35:59.745Z,30.27
2018-03-27T16:37:02.193Z,27.73
2018-03-27T16:38:03.927Z,27.50
2018-03-27T16:40:39.375Z,28.07
2018-03-27T16:41:41.049Z,26.70
2018-03-27T16:42:44.184Z,26.77
2018-03-27T16:43:45.583Z,27.47
2018-03-27T16:44:47.313Z,28.57
2018-03-27T16:45:48.973Z,29.60
2018-03-27T16:46:51.099Z,27.73
2018-03-27T16:47:52.745Z,27.90
2018-03-27T16:48:56.084Z,25.97
2018-03-27T16:50:25.274Z,31.60
2018-03-27T16:52:46.335Z,25.90
2018-03-27T16:53:49.636Z,25.10
2018-03-27T16:54:52.987Z,25.83
2018-03-27T16:55:56.344Z,25.23
2018-03-27T17:00:21.809Z,27.93
2018-03-27T17:01:25.196Z,25.80
2018-03-27T17:02:27.276Z,24.77
2018-03-27T17:03:29.193Z,25.03
2018-03-27T17:04:30.922Z,24.70
2018-03-27T17:05:34.547Z,26.40
2018-03-27T17:10:59.189Z,35.17
2018-03-27T17:12:02.135Z,36.33
2018-03-27T17:13:47.168Z,45.50
2018-03-27T17:14:48.967Z,35.17
2018-03-27T17:15:52.679Z,33.17
2018-03-27T17:16:54.453Z,36.93
2018-03-27T17:17:58.049Z,36.63
2018-03-27T17:19:01.495Z,31.20
2018-03-27T17:20:03.322Z,31.93
2018-03-27T17:21:06.706Z,34.73
2018-03-27T17:22:49.364Z,30.43
2018-03-27T17:23:51.007Z,33.07
2018-03-27T17:24:54.349Z,32.87
2018-03-27T17:26:42.013Z,31.83
2018-03-27T17:27:45.045Z,32.47
2018-03-27T17:28:48.068Z,33.30
2018-03-27T17:29:49.513Z,33.70
2018-03-27T17:30:52.098Z,33.73
2018-03-27T17:31:54.302Z,36.03
2018-03-27T17:32:57.589Z,37.07
2018-03-27T17:33:59.522Z,38.53
2018-03-27T17:35:03.143Z,36.87
2018-03-27T17:36:06.523Z,36.37
2018-03-27T17:37:08.291Z,35.30
2018-03-27T17:38:10.061Z,36.97
2018-03-27T17:39:13.147Z,32.63
2018-03-27T17:40:16.548Z,34.80
2018-03-27T17:41:18.129Z,34.53
2018-03-27T17:42:42.727Z,33.60
2018-03-27T17:44:17.026Z,31.53
2018-03-27T17:45:20.131Z,30.93
2018-03-27T17:46:22.931Z,27.27
2018-03-27T17:47:24.575Z,28.90
2018-03-27T17:48:26.152Z,27.57
2018-03-27T17:49:29.416Z,31.97
2018-03-27T17:50:32.682Z,25.40
2018-03-27T17:51:34.371Z,24.73
2018-03-27T17:52:37.193Z,25.47
2018-03-27T17:53:40.458Z,24.87
2018-03-27T17:54:42.864Z,23.80
2018-03-27T17:55:46.128Z,24.53
2018-03-27T18:01:59.752Z,26.33
2018-03-27T18:03:01.341Z,22.13
2018-03-27T18:04:04.596Z,23.77
2018-03-27T18:05:07.923Z,23.27
2018-03-27T18:06:11.154Z,23.70
2018-03-27T18:07:14.380Z,22.27
2018-03-27T18:08:15.893Z,23.50
2018-03-27T18:09:19.161Z,24.10
2018-03-27T18:10:22.390Z,22.83
2018-03-27T18:11:24.994Z,24.33
2018-03-27T18:13:10.949Z,24.40
2018-03-27T18:14:13.172Z,23.27
2018-03-27T18:15:14.632Z,23.87
2018-03-27T18:16:16.125Z,23.73
2018-03-27T18:17:17.625Z,23.83
2018-03-27T18:18:19.135Z,26.80
2018-03-27T18:19:20.601Z,24.37
2018-03-27T18:20:22.086Z,25.03
2018-03-27T18:21:25.324Z,26.53